CES519 ZGGG-ZUUU
Flight info
| Callsign | CES519 |
|---|---|
| Flight time | N/A |
| Altitude | 40100 |
| Route | AGVIL W24 OSNOV G586 QP B330 ELKAL W179 IGNAK |
| Aircraft | A359/H-SDE2E3GHIJ3J4J5LM1ORWXY/LB1D1 |
Departure
| Time | N/A |
|---|---|
| Airport | Guangzhou Baiyun International Airport (ZGGG) |
Arrival
| Time | 2026-04-29 15:40 |
|---|---|
| Airport | Chengdu Shuangliu International Airport (ZUUU) |
| Time | Latitude | Longitude | Altitude | Speed | Heading |
|---|---|---|---|---|---|
| 2026-04-29 14:48 | 26.40042 | 107.69168 | 40100 ft | 493 kts | 295° |
| 2026-04-29 14:49 | 26.42983 | 107.62272 | 40101 ft | 493 kts | 295° |
| 2026-04-29 14:49 | 26.45925 | 107.55363 | 40100 ft | 493 kts | 295° |
| 2026-04-29 14:50 | 26.48864 | 107.48456 | 40100 ft | 493 kts | 295° |
| 2026-04-29 14:50 | 26.51794 | 107.41538 | 40100 ft | 493 kts | 295° |
| 2026-04-29 14:51 | 26.54714 | 107.34624 | 40100 ft | 493 kts | 295° |
| 2026-04-29 14:51 | 26.57644 | 107.27706 | 40100 ft | 493 kts | 295° |
| 2026-04-29 14:52 | 26.60569 | 107.20785 | 40100 ft | 493 kts | 295° |
| 2026-04-29 14:52 | 26.63490 | 107.13862 | 40100 ft | 493 kts | 295° |
| 2026-04-29 14:53 | 26.66428 | 107.06943 | 40100 ft | 493 kts | 295° |
| 2026-04-29 14:53 | 26.69369 | 107.00023 | 40100 ft | 493 kts | 295° |
| 2026-04-29 14:54 | 26.71324 | 106.95415 | 40100 ft | 493 kts | 295° |
| 2026-04-29 14:54 | 26.74293 | 106.88403 | 40101 ft | 493 kts | 295° |
| 2026-04-29 14:55 | 26.77284 | 106.81503 | 40099 ft | 493 kts | 299° |
| 2026-04-29 14:55 | 26.81441 | 106.75433 | 40104 ft | 493 kts | 316° |
| 2026-04-29 14:56 | 26.86501 | 106.70251 | 40100 ft | 493 kts | 318° |
| 2026-04-29 14:56 | 26.91696 | 106.65217 | 40101 ft | 494 kts | 319° |
| 2026-04-29 14:57 | 26.96859 | 106.60214 | 40100 ft | 494 kts | 319° |
| 2026-04-29 14:57 | 27.02038 | 106.55149 | 40100 ft | 494 kts | 318° |
| 2026-04-29 14:58 | 27.07204 | 106.50071 | 40100 ft | 494 kts | 318° |
| 2026-04-29 14:58 | 27.12367 | 106.44986 | 40100 ft | 494 kts | 318° |
| 2026-04-29 14:59 | 27.17529 | 106.39897 | 40101 ft | 494 kts | 318° |
| 2026-04-29 14:59 | 27.22698 | 106.34815 | 40100 ft | 494 kts | 319° |
| 2026-04-29 15:00 | 27.27899 | 106.29759 | 40100 ft | 494 kts | 319° |
| 2026-04-29 15:00 | 27.33099 | 106.24706 | 40100 ft | 494 kts | 319° |
| 2026-04-29 15:01 | 27.38288 | 106.19651 | 40100 ft | 494 kts | 319° |
| 2026-04-29 15:01 | 27.43477 | 106.14583 | 40100 ft | 494 kts | 319° |
| 2026-04-29 15:02 | 27.48627 | 106.09546 | 40100 ft | 494 kts | 319° |
| 2026-04-29 15:02 | 27.53812 | 106.04469 | 40100 ft | 494 kts | 319° |
| 2026-04-29 15:03 | 27.58991 | 105.99391 | 40100 ft | 494 kts | 319° |
| 2026-04-29 15:03 | 27.63331 | 105.95130 | 40100 ft | 494 kts | 319° |
| 2026-04-29 15:04 | 27.68507 | 105.90029 | 40097 ft | 494 kts | 317° |
| 2026-04-29 15:04 | 27.72863 | 105.84151 | 40101 ft | 492 kts | 300° |
| 2026-04-29 15:05 | 27.74174 | 105.81296 | 40100 ft | 492 kts | 292° |
| 2026-04-29 15:05 | 27.76458 | 105.74031 | 40101 ft | 492 kts | 287° |
| 2026-04-29 15:06 | 27.78481 | 105.66646 | 40100 ft | 492 kts | 287° |
| 2026-04-29 15:06 | 27.80725 | 105.59344 | 40101 ft | 492 kts | 292° |
| 2026-04-29 15:07 | 27.83404 | 105.52212 | 40100 ft | 492 kts | 293° |
| 2026-04-29 15:07 | 27.84770 | 105.48688 | 39395 ft | 486 kts | 292° |
| 2026-04-29 15:07 | 27.86098 | 105.45287 | 39584 ft | 457 kts | 292° |
| 2026-04-29 15:07 | 27.87338 | 105.42116 | 39827 ft | 431 kts | 291° |
| 2026-04-29 15:08 | 27.88531 | 105.39049 | 40075 ft | 421 kts | 291° |
| 2026-04-29 15:08 | 27.89736 | 105.36047 | 40249 ft | 420 kts | 293° |
| 2026-04-29 15:08 | 27.91030 | 105.33092 | 40278 ft | 420 kts | 294° |
| 2026-04-29 15:09 | 27.93718 | 105.27222 | 40271 ft | 420 kts | 295° |
| 2026-04-29 15:09 | 27.96494 | 105.21401 | 40273 ft | 422 kts | 299° |
| 2026-04-29 15:10 | 28.00258 | 105.16248 | 40261 ft | 431 kts | 313° |
| 2026-04-29 15:10 | 28.05152 | 105.12231 | 40260 ft | 438 kts | 321° |
| 2026-04-29 15:11 | 28.10313 | 105.08626 | 40251 ft | 439 kts | 322° |
| 2026-04-29 15:11 | 28.15569 | 105.05014 | 40254 ft | 439 kts | 322° |
| 2026-04-29 15:12 | 28.20730 | 105.01435 | 40246 ft | 437 kts | 322° |
| 2026-04-29 15:12 | 28.25896 | 104.97823 | 40033 ft | 434 kts | 322° |
| 2026-04-29 15:12 | 28.28465 | 104.96022 | 39799 ft | 434 kts | 322° |
| 2026-04-29 15:13 | 28.31030 | 104.94221 | 39562 ft | 434 kts | 322° |
| 2026-04-29 15:13 | 28.33591 | 104.92422 | 39330 ft | 433 kts | 322° |
| 2026-04-29 15:13 | 28.36149 | 104.90626 | 39108 ft | 431 kts | 322° |
| 2026-04-29 15:13 | 28.38697 | 104.88835 | 38877 ft | 430 kts | 322° |
| 2026-04-29 15:14 | 28.41245 | 104.87050 | 38615 ft | 429 kts | 322° |
| 2026-04-29 15:14 | 28.43785 | 104.85274 | 38343 ft | 429 kts | 322° |
| 2026-04-29 15:14 | 28.46334 | 104.83492 | 38074 ft | 429 kts | 322° |
| 2026-04-29 15:14 | 28.48879 | 104.81712 | 37806 ft | 430 kts | 322° |
| 2026-04-29 15:15 | 28.51429 | 104.79926 | 37546 ft | 431 kts | 322° |
| 2026-04-29 15:15 | 28.53983 | 104.78138 | 37293 ft | 431 kts | 322° |
| 2026-04-29 15:15 | 28.56541 | 104.76346 | 37030 ft | 432 kts | 322° |
| 2026-04-29 15:15 | 28.59099 | 104.74553 | 36774 ft | 432 kts | 322° |
| 2026-04-29 15:16 | 28.61659 | 104.72758 | 36526 ft | 432 kts | 322° |
| 2026-04-29 15:16 | 28.64221 | 104.70959 | 36286 ft | 433 kts | 322° |
| 2026-04-29 15:16 | 28.66747 | 104.69185 | 36040 ft | 434 kts | 322° |
| 2026-04-29 15:16 | 28.69324 | 104.67374 | 35792 ft | 435 kts | 322° |
| 2026-04-29 15:17 | 28.71903 | 104.65562 | 35558 ft | 435 kts | 322° |
| 2026-04-29 15:17 | 28.74483 | 104.63746 | 35322 ft | 436 kts | 322° |
| 2026-04-29 15:17 | 28.77065 | 104.61928 | 35080 ft | 436 kts | 322° |
| 2026-04-29 15:17 | 28.79652 | 104.60107 | 34849 ft | 437 kts | 322° |
| 2026-04-29 15:18 | 28.82243 | 104.58282 | 34617 ft | 437 kts | 322° |
| 2026-04-29 15:18 | 28.84833 | 104.56457 | 34388 ft | 438 kts | 322° |
| 2026-04-29 15:18 | 28.87423 | 104.54630 | 34146 ft | 438 kts | 322° |
| 2026-04-29 15:18 | 28.90008 | 104.52789 | 33909 ft | 438 kts | 322° |
| 2026-04-29 15:19 | 28.92597 | 104.50940 | 33646 ft | 439 kts | 322° |
| 2026-04-29 15:19 | 28.95191 | 104.49090 | 33381 ft | 440 kts | 323° |
| 2026-04-29 15:19 | 28.97793 | 104.47234 | 33131 ft | 441 kts | 323° |
| 2026-04-29 15:19 | 29.00402 | 104.45372 | 32877 ft | 442 kts | 323° |
| 2026-04-29 15:20 | 29.03010 | 104.43510 | 32625 ft | 443 kts | 323° |
| 2026-04-29 15:20 | 29.05627 | 104.41641 | 32378 ft | 444 kts | 323° |
| 2026-04-29 15:20 | 29.08238 | 104.39777 | 31715 ft | 442 kts | 323° |
| 2026-04-29 15:20 | 29.10822 | 104.37928 | 30771 ft | 445 kts | 324° |
| 2026-04-29 15:21 | 29.13450 | 104.36047 | 29921 ft | 445 kts | 324° |
| 2026-04-29 15:21 | 29.16059 | 104.34182 | 29240 ft | 440 kts | 324° |
| 2026-04-29 15:21 | 29.18637 | 104.32339 | 28579 ft | 434 kts | 324° |
| 2026-04-29 15:21 | 29.21183 | 104.30517 | 27916 ft | 430 kts | 324° |
| 2026-04-29 15:22 | 29.23707 | 104.28708 | 27266 ft | 426 kts | 324° |
| 2026-04-29 15:22 | 29.26240 | 104.26958 | 26607 ft | 424 kts | 328° |
| 2026-04-29 15:22 | 29.28977 | 104.25656 | 25940 ft | 427 kts | 338° |
| 2026-04-29 15:22 | 29.31837 | 104.24725 | 25279 ft | 427 kts | 340° |
| 2026-04-29 15:23 | 29.34699 | 104.23855 | 24613 ft | 425 kts | 340° |
| 2026-04-29 15:23 | 29.37548 | 104.22988 | 23961 ft | 423 kts | 340° |
| 2026-04-29 15:23 | 29.40388 | 104.22119 | 23235 ft | 421 kts | 340° |
| 2026-04-29 15:23 | 29.43206 | 104.21252 | 22545 ft | 417 kts | 341° |
| 2026-04-29 15:24 | 29.45991 | 104.20394 | 21879 ft | 413 kts | 341° |
| 2026-04-29 15:24 | 29.48756 | 104.19540 | 21216 ft | 409 kts | 341° |
| 2026-04-29 15:24 | 29.51487 | 104.18694 | 20557 ft | 406 kts | 341° |
| 2026-04-29 15:24 | 29.54211 | 104.17850 | 19892 ft | 403 kts | 342° |
| 2026-04-29 15:25 | 29.56907 | 104.17014 | 19228 ft | 401 kts | 342° |
| 2026-04-29 15:25 | 29.59597 | 104.16180 | 18553 ft | 399 kts | 342° |
| 2026-04-29 15:25 | 29.62266 | 104.15351 | 17820 ft | 396 kts | 342° |
| 2026-04-29 15:25 | 29.64918 | 104.14529 | 17134 ft | 393 kts | 343° |
| 2026-04-29 15:26 | 29.67549 | 104.13713 | 16463 ft | 390 kts | 343° |
| 2026-04-29 15:26 | 29.70123 | 104.12914 | 15808 ft | 388 kts | 343° |
| 2026-04-29 15:26 | 29.72723 | 104.12106 | 15147 ft | 386 kts | 343° |
| 2026-04-29 15:26 | 29.75306 | 104.11302 | 14491 ft | 385 kts | 343° |
| 2026-04-29 15:27 | 29.77886 | 104.10500 | 13817 ft | 384 kts | 343° |
| 2026-04-29 15:27 | 29.80459 | 104.09698 | 13120 ft | 381 kts | 343° |
| 2026-04-29 15:27 | 29.83013 | 104.08902 | 12455 ft | 378 kts | 343° |
| 2026-04-29 15:27 | 29.85540 | 104.08115 | 11817 ft | 374 kts | 343° |
| 2026-04-29 15:28 | 29.88042 | 104.07335 | 11220 ft | 370 kts | 343° |
| 2026-04-29 15:28 | 29.89691 | 104.06821 | 11115 ft | 358 kts | 343° |
| 2026-04-29 15:28 | 29.92778 | 104.05859 | 10938 ft | 336 kts | 343° |
| 2026-04-29 15:28 | 29.94983 | 104.05171 | 10802 ft | 321 kts | 343° |
| 2026-04-29 15:29 | 29.97102 | 104.04509 | 10654 ft | 308 kts | 343° |
| 2026-04-29 15:29 | 30.01085 | 104.03265 | 10381 ft | 285 kts | 343° |
| 2026-04-29 15:30 | 30.04850 | 104.02085 | 9757 ft | 282 kts | 343° |
| 2026-04-29 15:30 | 30.06777 | 104.01478 | 9412 ft | 290 kts | 343° |
| 2026-04-29 15:30 | 30.08723 | 104.00866 | 9060 ft | 289 kts | 343° |
| 2026-04-29 15:30 | 30.10657 | 104.00260 | 8733 ft | 287 kts | 343° |
| 2026-04-29 15:31 | 30.12576 | 103.99659 | 8404 ft | 285 kts | 344° |
| 2026-04-29 15:31 | 30.14481 | 103.99061 | 8075 ft | 283 kts | 344° |
| 2026-04-29 15:31 | 30.15817 | 103.98643 | 7852 ft | 282 kts | 344° |
| 2026-04-29 15:31 | 30.17703 | 103.98051 | 7531 ft | 280 kts | 344° |
| 2026-04-29 15:32 | 30.19570 | 103.97465 | 7263 ft | 275 kts | 344° |
| 2026-04-29 15:32 | 30.21387 | 103.96895 | 7126 ft | 263 kts | 344° |
| 2026-04-29 15:32 | 30.23091 | 103.96359 | 7025 ft | 252 kts | 344° |
| 2026-04-29 15:32 | 30.24746 | 103.95839 | 6917 ft | 241 kts | 344° |
| 2026-04-29 15:33 | 30.26350 | 103.95326 | 6789 ft | 231 kts | 343° |
| 2026-04-29 15:33 | 30.27750 | 103.94500 | 6610 ft | 225 kts | 318° |
| 2026-04-29 15:33 | 30.28620 | 103.93029 | 6373 ft | 222 kts | 295° |
| 2026-04-29 15:33 | 30.29195 | 103.91411 | 6153 ft | 219 kts | 291° |
| 2026-04-29 15:34 | 30.29742 | 103.89767 | 5935 ft | 219 kts | 291° |
| 2026-04-29 15:34 | 30.30295 | 103.88126 | 5708 ft | 219 kts | 291° |
| 2026-04-29 15:34 | 30.30937 | 103.86536 | 5464 ft | 218 kts | 303° |
| 2026-04-29 15:34 | 30.32056 | 103.85392 | 5241 ft | 217 kts | 336° |
| 2026-04-29 15:35 | 30.33525 | 103.85152 | 5010 ft | 216 kts | 9° |
| 2026-04-29 15:35 | 30.34955 | 103.85664 | 4794 ft | 215 kts | 22° |
| 2026-04-29 15:35 | 30.36343 | 103.86340 | 4714 ft | 218 kts | 23° |
| 2026-04-29 15:35 | 30.37586 | 103.86946 | 4649 ft | 218 kts | 22° |
| 2026-04-29 15:36 | 30.38064 | 103.87176 | 4597 ft | 218 kts | 22° |
| 2026-04-29 15:36 | 30.38519 | 103.87394 | 4519 ft | 218 kts | 22° |
| 2026-04-29 15:37 | 30.39342 | 103.87789 | 4372 ft | 217 kts | 22° |
| 2026-04-29 15:37 | 30.40746 | 103.88447 | 4087 ft | 218 kts | 22° |
| 2026-04-29 15:37 | 30.42158 | 103.89102 | 3807 ft | 218 kts | 22° |
| 2026-04-29 15:37 | 30.43443 | 103.89704 | 3542 ft | 219 kts | 22° |
| 2026-04-29 15:38 | 30.44856 | 103.90363 | 3241 ft | 219 kts | 22° |
| 2026-04-29 15:38 | 30.46267 | 103.91020 | 2959 ft | 217 kts | 23° |
| 2026-04-29 15:38 | 30.47669 | 103.91674 | 2672 ft | 218 kts | 23° |
| 2026-04-29 15:38 | 30.48125 | 103.91887 | 2558 ft | 217 kts | 23° |
| 2026-04-29 15:39 | 30.49294 | 103.92432 | 2323 ft | 203 kts | 23° |
| 2026-04-29 15:39 | 30.50525 | 103.93006 | 2057 ft | 181 kts | 22° |
| 2026-04-29 15:39 | 30.51652 | 103.93532 | 1767 ft | 169 kts | 22° |
| 2026-04-29 15:39 | 30.52686 | 103.94018 | 1690 ft | 150 kts | 22° |
| 2026-04-29 15:40 | 30.53575 | 103.94429 | 1671 ft | 115 kts | 21° |
| 2026-04-29 15:40 | 30.54075 | 103.94627 | 1664 ft | 25 kts | 359° |
| 2026-04-29 15:40 | 30.54163 | 103.94620 | 1663 ft | 7 kts | 355° |
| 2026-04-29 15:40 | 30.54218 | 103.94614 | 1661 ft | 10 kts | 354° |
| 2026-04-29 15:41 | 30.54295 | 103.94595 | 1654 ft | 13 kts | 347° |
| 2026-04-29 15:41 | 30.54391 | 103.94588 | 1671 ft | 15 kts | 6° |
| 2026-04-29 15:41 | 30.54498 | 103.94628 | 1654 ft | 18 kts | 22° |
| 2026-04-29 15:41 | 30.54620 | 103.94686 | 1653 ft | 20 kts | 22° |
| 2026-04-29 15:42 | 30.54760 | 103.94749 | 1653 ft | 22 kts | 15° |
| 2026-04-29 15:42 | 30.54869 | 103.94657 | 1653 ft | 21 kts | 317° |
| 2026-04-29 15:42 | 30.55003 | 103.94582 | 1653 ft | 22 kts | 337° |
| 2026-04-29 15:42 | 30.55154 | 103.94508 | 1653 ft | 25 kts | 337° |
| 2026-04-29 15:43 | 30.55319 | 103.94426 | 1653 ft | 27 kts | 336° |
| 2026-04-29 15:43 | 30.55496 | 103.94336 | 1653 ft | 29 kts | 336° |
| 2026-04-29 15:43 | 30.55684 | 103.94243 | 1653 ft | 30 kts | 337° |
| 2026-04-29 15:43 | 30.55881 | 103.94208 | 1653 ft | 29 kts | 18° |
| 2026-04-29 15:44 | 30.56075 | 103.94297 | 1653 ft | 31 kts | 22° |
| 2026-04-29 15:44 | 30.56277 | 103.94391 | 1653 ft | 32 kts | 22° |
| 2026-04-29 15:44 | 30.56489 | 103.94490 | 1653 ft | 33 kts | 22° |
| 2026-04-29 15:44 | 30.56681 | 103.94581 | 1653 ft | 24 kts | 23° |
| 2026-04-29 15:45 | 30.56825 | 103.94650 | 1653 ft | 12 kts | 22° |
| 2026-04-29 15:45 | 30.56863 | 103.94733 | 1653 ft | 13 kts | 77° |
| 2026-04-29 15:45 | 30.56903 | 103.94785 | 1653 ft | 8 kts | 27° |
| 2026-04-29 15:45 | 30.56938 | 103.94835 | 1653 ft | 9 kts | 77° |
| 2026-04-29 15:46 | 30.56945 | 103.94878 | 1653 ft | 0 kts | 79° |